sensor_id;sensor_type;location;lat;lon;timestamp;P1;durP1;ratioP1;P2;durP2;ratioP2
53497;SDS011;39382;47.168;16.008;2023-05-10T00:02:06;5.63;;;2.60;;
53497;SDS011;39382;47.168;16.008;2023-05-10T00:04:32;4.18;;;2.60;;
53497;SDS011;39382;47.168;16.008;2023-05-10T00:06:58;6.93;;;2.70;;
53497;SDS011;39382;47.168;16.008;2023-05-10T00:09:24;3.78;;;2.63;;
53497;SDS011;39382;47.168;16.008;2023-05-10T00:11:49;2.67;;;2.03;;
53497;SDS011;39382;47.168;16.008;2023-05-10T00:14:15;3.97;;;2.17;;
53497;SDS011;39382;47.168;16.008;2023-05-10T00:16:41;3.35;;;2.45;;
53497;SDS011;39382;47.168;16.008;2023-05-10T00:19:07;4.18;;;2.50;;
53497;SDS011;39382;47.168;16.008;2023-05-10T00:21:32;4.85;;;2.35;;
53497;SDS011;39382;47.168;16.008;2023-05-10T00:23:58;3.05;;;1.85;;
53497;SDS011;39382;47.168;16.008;2023-05-10T00:26:24;2.45;;;2.00;;
53497;SDS011;39382;47.168;16.008;2023-05-10T00:28:50;4.45;;;2.53;;
53497;SDS011;39382;47.168;16.008;2023-05-10T00:31:16;3.63;;;2.80;;
53497;SDS011;39382;47.168;16.008;2023-05-10T00:33:41;3.08;;;2.35;;
53497;SDS011;39382;47.168;16.008;2023-05-10T00:36:07;6.05;;;2.97;;
53497;SDS011;39382;47.168;16.008;2023-05-10T00:38:33;3.90;;;2.38;;
53497;SDS011;39382;47.168;16.008;2023-05-10T00:40:59;3.30;;;2.50;;
53497;SDS011;39382;47.168;16.008;2023-05-10T00:43:24;2.65;;;2.42;;
53497;SDS011;39382;47.168;16.008;2023-05-10T00:45:50;5.07;;;2.75;;
53497;SDS011;39382;47.168;16.008;2023-05-10T00:48:16;3.50;;;2.60;;
53497;SDS011;39382;47.168;16.008;2023-05-10T00:50:42;4.78;;;3.22;;
53497;SDS011;39382;47.168;16.008;2023-05-10T00:53:08;6.05;;;2.42;;
53497;SDS011;39382;47.168;16.008;2023-05-10T00:55:34;2.58;;;2.13;;
53497;SDS011;39382;47.168;16.008;2023-05-10T00:58:00;2.42;;;2.22;;
53497;SDS011;39382;47.168;16.008;2023-05-10T01:00:26;6.40;;;3.22;;
53497;SDS011;39382;47.168;16.008;2023-05-10T01:02:53;2.63;;;2.13;;
53497;SDS011;39382;47.168;16.008;2023-05-10T01:05:18;3.83;;;2.33;;
53497;SDS011;39382;47.168;16.008;2023-05-10T01:07:44;3.78;;;2.55;;
53497;SDS011;39382;47.168;16.008;2023-05-10T01:10:10;4.28;;;2.58;;
53497;SDS011;39382;47.168;16.008;2023-05-10T01:12:38;3.58;;;2.13;;
53497;SDS011;39382;47.168;16.008;2023-05-10T01:15:09;2.47;;;2.00;;
53497;SDS011;39382;47.168;16.008;2023-05-10T01:17:36;7.18;;;2.58;;
53497;SDS011;39382;47.168;16.008;2023-05-10T01:20:04;3.45;;;2.13;;
53497;SDS011;39382;47.168;16.008;2023-05-10T01:36:05;5.63;;;2.40;;
53497;SDS011;39382;47.168;16.008;2023-05-10T01:38:47;2.65;;;2.10;;
53497;SDS011;39382;47.168;16.008;2023-05-10T01:41:17;4.20;;;2.80;;
53497;SDS011;39382;47.168;16.008;2023-05-10T01:44:09;3.78;;;2.90;;
53497;SDS011;39382;47.168;16.008;2023-05-10T01:46:35;5.57;;;3.40;;
53497;SDS011;39382;47.168;16.008;2023-05-10T01:49:03;5.05;;;2.67;;
53497;SDS011;39382;47.168;16.008;2023-05-10T01:51:53;3.72;;;2.75;;
53497;SDS011;39382;47.168;16.008;2023-05-10T01:54:21;4.80;;;2.95;;
53497;SDS011;39382;47.168;16.008;2023-05-10T01:56:50;4.07;;;2.95;;
53497;SDS011;39382;47.168;16.008;2023-05-10T01:59:20;4.97;;;3.28;;
53497;SDS011;39382;47.168;16.008;2023-05-10T02:01:47;6.68;;;3.00;;
53497;SDS011;39382;47.168;16.008;2023-05-10T02:04:15;3.92;;;2.75;;
53497;SDS011;39382;47.168;16.008;2023-05-10T02:06:43;5.38;;;2.53;;
53497;SDS011;39382;47.168;16.008;2023-05-10T02:09:11;4.07;;;2.78;;
53497;SDS011;39382;47.168;16.008;2023-05-10T02:11:39;5.00;;;2.75;;
53497;SDS011;39382;47.168;16.008;2023-05-10T02:14:07;3.05;;;2.30;;
53497;SDS011;39382;47.168;16.008;2023-05-10T02:16:36;4.20;;;2.47;;
53497;SDS011;39382;47.168;16.008;2023-05-10T02:19:04;4.10;;;2.65;;
53497;SDS011;39382;47.168;16.008;2023-05-10T02:21:31;3.58;;;2.30;;
53497;SDS011;39382;47.168;16.008;2023-05-10T02:23:58;3.05;;;2.25;;
53497;SDS011;39382;47.168;16.008;2023-05-10T02:26:26;5.05;;;2.33;;
53497;SDS011;39382;47.168;16.008;2023-05-10T02:28:53;4.07;;;2.88;;
53497;SDS011;39382;47.168;16.008;2023-05-10T02:31:19;2.95;;;2.35;;
53497;SDS011;39382;47.168;16.008;2023-05-10T02:33:46;4.38;;;2.58;;
53497;SDS011;39382;47.168;16.008;2023-05-10T02:36:13;5.90;;;2.58;;
53497;SDS011;39382;47.168;16.008;2023-05-10T02:38:41;4.40;;;2.28;;
53497;SDS011;39382;47.168;16.008;2023-05-10T02:41:08;5.72;;;2.97;;
53497;SDS011;39382;47.168;16.008;2023-05-10T02:43:36;2.53;;;2.33;;
53497;SDS011;39382;47.168;16.008;2023-05-10T02:46:04;4.30;;;2.58;;
53497;SDS011;39382;47.168;16.008;2023-05-10T02:48:30;3.05;;;2.42;;
53497;SDS011;39382;47.168;16.008;2023-05-10T02:50:56;3.38;;;2.42;;
53497;SDS011;39382;47.168;16.008;2023-05-10T02:53:30;3.63;;;2.65;;
53497;SDS011;39382;47.168;16.008;2023-05-10T02:56:02;3.97;;;2.47;;
53497;SDS011;39382;47.168;16.008;2023-05-10T02:58:33;2.92;;;2.47;;
53497;SDS011;39382;47.168;16.008;2023-05-10T03:00:59;3.30;;;2.67;;
53497;SDS011;39382;47.168;16.008;2023-05-10T03:03:25;3.28;;;2.40;;
53497;SDS011;39382;47.168;16.008;2023-05-10T03:05:51;3.45;;;2.17;;
53497;SDS011;39382;47.168;16.008;2023-05-10T03:08:20;5.13;;;2.67;;
53497;SDS011;39382;47.168;16.008;2023-05-10T03:16:10;3.67;;;2.70;;
53497;SDS011;39382;47.168;16.008;2023-05-10T03:21:45;4.40;;;2.95;;
53497;SDS011;39382;47.168;16.008;2023-05-10T03:24:15;2.60;;;2.40;;
53497;SDS011;39382;47.168;16.008;2023-05-10T03:26:43;5.07;;;2.85;;
53497;SDS011;39382;47.168;16.008;2023-05-10T03:29:11;3.35;;;2.90;;
53497;SDS011;39382;47.168;16.008;2023-05-10T03:31:38;3.83;;;2.95;;
53497;SDS011;39382;47.168;16.008;2023-05-10T03:34:04;3.45;;;2.65;;
53497;SDS011;39382;47.168;16.008;2023-05-10T03:36:29;5.13;;;3.10;;
53497;SDS011;39382;47.168;16.008;2023-05-10T03:38:55;3.10;;;2.55;;
53497;SDS011;39382;47.168;16.008;2023-05-10T03:41:21;3.88;;;3.08;;
53497;SDS011;39382;47.168;16.008;2023-05-10T03:43:46;3.60;;;3.00;;
53497;SDS011;39382;47.168;16.008;2023-05-10T03:46:12;4.75;;;3.22;;
53497;SDS011;39382;47.168;16.008;2023-05-10T03:48:37;3.33;;;2.58;;
53497;SDS011;39382;47.168;16.008;2023-05-10T03:51:04;4.00;;;2.70;;
53497;SDS011;39382;47.168;16.008;2023-05-10T03:53:30;6.68;;;3.13;;
53497;SDS011;39382;47.168;16.008;2023-05-10T03:55:55;6.35;;;2.55;;
53497;SDS011;39382;47.168;16.008;2023-05-10T03:58:21;4.70;;;3.30;;
53497;SDS011;39382;47.168;16.008;2023-05-10T04:00:47;6.47;;;3.50;;
53497;SDS011;39382;47.168;16.008;2023-05-10T04:03:12;4.72;;;3.53;;
53497;SDS011;39382;47.168;16.008;2023-05-10T04:05:39;6.15;;;3.63;;
53497;SDS011;39382;47.168;16.008;2023-05-10T04:08:05;7.90;;;4.18;;
53497;SDS011;39382;47.168;16.008;2023-05-10T04:10:30;7.90;;;4.20;;
53497;SDS011;39382;47.168;16.008;2023-05-10T04:12:56;6.97;;;4.03;;
53497;SDS011;39382;47.168;16.008;2023-05-10T04:15:22;6.20;;;3.78;;
53497;SDS011;39382;47.168;16.008;2023-05-10T04:17:47;7.47;;;3.05;;
53497;SDS011;39382;47.168;16.008;2023-05-10T04:20:13;4.38;;;3.40;;
53497;SDS011;39382;47.168;16.008;2023-05-10T04:22:39;5.35;;;3.78;;
53497;SDS011;39382;47.168;16.008;2023-05-10T04:25:05;5.50;;;3.55;;
53497;SDS011;39382;47.168;16.008;2023-05-10T04:27:32;6.18;;;3.33;;
53497;SDS011;39382;47.168;16.008;2023-05-10T04:29:57;6.13;;;4.45;;
53497;SDS011;39382;47.168;16.008;2023-05-10T04:32:23;9.75;;;4.13;;
53497;SDS011;39382;47.168;16.008;2023-05-10T04:34:49;10.15;;;3.45;;
53497;SDS011;39382;47.168;16.008;2023-05-10T04:37:16;5.63;;;3.65;;
53497;SDS011;39382;47.168;16.008;2023-05-10T04:39:42;6.15;;;3.70;;
53497;SDS011;39382;47.168;16.008;2023-05-10T04:42:07;8.00;;;3.45;;
53497;SDS011;39382;47.168;16.008;2023-05-10T04:44:33;4.63;;;3.40;;
53497;SDS011;39382;47.168;16.008;2023-05-10T04:46:59;5.40;;;3.17;;
53497;SDS011;39382;47.168;16.008;2023-05-10T04:49:25;5.82;;;3.90;;
53497;SDS011;39382;47.168;16.008;2023-05-10T04:51:50;5.43;;;4.43;;
53497;SDS011;39382;47.168;16.008;2023-05-10T04:54:16;5.30;;;3.33;;
53497;SDS011;39382;47.168;16.008;2023-05-10T04:56:41;11.80;;;6.88;;
53497;SDS011;39382;47.168;16.008;2023-05-10T04:59:07;7.43;;;4.97;;
53497;SDS011;39382;47.168;16.008;2023-05-10T05:01:33;5.85;;;4.43;;
53497;SDS011;39382;47.168;16.008;2023-05-10T05:03:58;9.25;;;4.32;;
53497;SDS011;39382;47.168;16.008;2023-05-10T05:06:24;5.18;;;3.60;;
53497;SDS011;39382;47.168;16.008;2023-05-10T05:08:50;5.68;;;3.78;;
53497;SDS011;39382;47.168;16.008;2023-05-10T05:11:19;6.50;;;4.35;;
53497;SDS011;39382;47.168;16.008;2023-05-10T05:13:45;7.75;;;4.05;;
53497;SDS011;39382;47.168;16.008;2023-05-10T05:16:11;8.85;;;4.32;;
53497;SDS011;39382;47.168;16.008;2023-05-10T05:18:37;7.00;;;4.45;;
53497;SDS011;39382;47.168;16.008;2023-05-10T05:21:02;6.90;;;4.88;;
53497;SDS011;39382;47.168;16.008;2023-05-10T05:23:28;7.45;;;4.68;;
53497;SDS011;39382;47.168;16.008;2023-05-10T05:25:54;5.88;;;4.20;;
53497;SDS011;39382;47.168;16.008;2023-05-10T05:28:20;6.82;;;4.00;;
53497;SDS011;39382;47.168;16.008;2023-05-10T05:30:46;5.53;;;4.60;;
53497;SDS011;39382;47.168;16.008;2023-05-10T05:33:13;6.03;;;4.07;;
53497;SDS011;39382;47.168;16.008;2023-05-10T05:35:40;6.32;;;3.90;;
53497;SDS011;39382;47.168;16.008;2023-05-10T05:38:16;8.45;;;5.07;;
53497;SDS011;39382;47.168;16.008;2023-05-10T05:40:54;5.65;;;4.35;;
53497;SDS011;39382;47.168;16.008;2023-05-10T05:43:56;6.88;;;4.15;;
53497;SDS011;39382;47.168;16.008;2023-05-10T05:46:23;6.50;;;4.35;;
53497;SDS011;39382;47.168;16.008;2023-05-10T05:48:52;6.35;;;4.80;;
53497;SDS011;39382;47.168;16.008;2023-05-10T05:51:22;7.20;;;4.63;;
53497;SDS011;39382;47.168;16.008;2023-05-10T05:53:47;9.90;;;4.22;;
53497;SDS011;39382;47.168;16.008;2023-05-10T05:56:13;5.65;;;3.88;;
53497;SDS011;39382;47.168;16.008;2023-05-10T05:58:39;5.15;;;3.80;;
53497;SDS011;39382;47.168;16.008;2023-05-10T06:01:04;3.90;;;3.30;;
53497;SDS011;39382;47.168;16.008;2023-05-10T06:03:30;5.40;;;3.53;;
53497;SDS011;39382;47.168;16.008;2023-05-10T06:05:56;11.52;;;5.75;;
53497;SDS011;39382;47.168;16.008;2023-05-10T06:08:21;5.90;;;3.28;;
53497;SDS011;39382;47.168;16.008;2023-05-10T06:10:47;7.20;;;3.97;;
53497;SDS011;39382;47.168;16.008;2023-05-10T06:23:34;6.40;;;4.35;;
53497;SDS011;39382;47.168;16.008;2023-05-10T06:26:00;6.65;;;4.10;;
53497;SDS011;39382;47.168;16.008;2023-05-10T06:28:26;6.13;;;4.45;;
53497;SDS011;39382;47.168;16.008;2023-05-10T06:30:52;6.05;;;4.03;;
53497;SDS011;39382;47.168;16.008;2023-05-10T06:33:18;4.47;;;3.90;;
53497;SDS011;39382;47.168;16.008;2023-05-10T06:35:43;5.05;;;3.47;;
53497;SDS011;39382;47.168;16.008;2023-05-10T06:38:09;6.25;;;3.47;;
53497;SDS011;39382;47.168;16.008;2023-05-10T06:40:35;3.90;;;3.30;;
53497;SDS011;39382;47.168;16.008;2023-05-10T06:43:01;8.70;;;5.63;;
53497;SDS011;39382;47.168;16.008;2023-05-10T06:45:27;12.02;;;6.57;;
53497;SDS011;39382;47.168;16.008;2023-05-10T06:47:52;4.00;;;3.40;;
53497;SDS011;39382;47.168;16.008;2023-05-10T06:50:18;4.78;;;3.38;;
53497;SDS011;39382;47.168;16.008;2023-05-10T06:52:43;5.78;;;4.00;;
53497;SDS011;39382;47.168;16.008;2023-05-10T06:55:09;4.85;;;3.53;;
53497;SDS011;39382;47.168;16.008;2023-05-10T06:57:35;5.90;;;3.53;;
53497;SDS011;39382;47.168;16.008;2023-05-10T07:00:01;6.10;;;3.53;;
53497;SDS011;39382;47.168;16.008;2023-05-10T07:02:29;4.85;;;3.25;;
53497;SDS011;39382;47.168;16.008;2023-05-10T07:04:54;4.90;;;3.10;;
53497;SDS011;39382;47.168;16.008;2023-05-10T07:07:20;5.63;;;3.55;;
53497;SDS011;39382;47.168;16.008;2023-05-10T07:09:46;4.25;;;3.22;;
53497;SDS011;39382;47.168;16.008;2023-05-10T07:12:11;5.50;;;3.17;;
53497;SDS011;39382;47.168;16.008;2023-05-10T07:14:37;8.45;;;2.72;;
53497;SDS011;39382;47.168;16.008;2023-05-10T07:17:03;4.88;;;3.05;;
53497;SDS011;39382;47.168;16.008;2023-05-10T07:19:29;20.80;;;4.28;;
53497;SDS011;39382;47.168;16.008;2023-05-10T07:21:54;13.73;;;4.50;;
53497;SDS011;39382;47.168;16.008;2023-05-10T07:24:20;7.35;;;3.47;;
53497;SDS011;39382;47.168;16.008;2023-05-10T07:26:46;3.63;;;2.88;;
53497;SDS011;39382;47.168;16.008;2023-05-10T07:29:12;4.07;;;2.97;;
53497;SDS011;39382;47.168;16.008;2023-05-10T07:31:37;4.43;;;3.15;;
53497;SDS011;39382;47.168;16.008;2023-05-10T07:34:03;5.22;;;3.72;;
53497;SDS011;39382;47.168;16.008;2023-05-10T07:36:28;6.13;;;2.97;;
53497;SDS011;39382;47.168;16.008;2023-05-10T07:38:54;4.32;;;2.30;;
53497;SDS011;39382;47.168;16.008;2023-05-10T07:41:21;5.72;;;3.35;;
53497;SDS011;39382;47.168;16.008;2023-05-10T07:43:47;6.95;;;2.95;;
53497;SDS011;39382;47.168;16.008;2023-05-10T07:46:13;5.50;;;3.55;;
53497;SDS011;39382;47.168;16.008;2023-05-10T07:48:38;5.65;;;3.92;;
53497;SDS011;39382;47.168;16.008;2023-05-10T07:51:04;7.93;;;2.95;;
53497;SDS011;39382;47.168;16.008;2023-05-10T07:53:31;3.17;;;2.70;;
53497;SDS011;39382;47.168;16.008;2023-05-10T07:55:57;11.27;;;3.65;;
53497;SDS011;39382;47.168;16.008;2023-05-10T07:58:23;6.40;;;2.97;;
53497;SDS011;39382;47.168;16.008;2023-05-10T08:00:49;3.20;;;2.83;;
53497;SDS011;39382;47.168;16.008;2023-05-10T08:03:15;7.03;;;3.60;;
53497;SDS011;39382;47.168;16.008;2023-05-10T08:05:41;7.43;;;3.33;;
53497;SDS011;39382;47.168;16.008;2023-05-10T08:08:07;6.55;;;3.17;;
53497;SDS011;39382;47.168;16.008;2023-05-10T08:10:32;10.10;;;3.10;;
53497;SDS011;39382;47.168;16.008;2023-05-10T08:12:58;3.50;;;3.10;;
53497;SDS011;39382;47.168;16.008;2023-05-10T08:15:24;7.03;;;3.10;;
53497;SDS011;39382;47.168;16.008;2023-05-10T08:17:51;7.75;;;3.38;;
53497;SDS011;39382;47.168;16.008;2023-05-10T08:20:17;6.15;;;3.20;;
53497;SDS011;39382;47.168;16.008;2023-05-10T08:22:44;4.43;;;3.05;;
53497;SDS011;39382;47.168;16.008;2023-05-10T08:25:10;4.47;;;2.42;;
53497;SDS011;39382;47.168;16.008;2023-05-10T08:27:36;4.68;;;3.53;;
53497;SDS011;39382;47.168;16.008;2023-05-10T08:30:02;3.22;;;2.92;;
53497;SDS011;39382;47.168;16.008;2023-05-10T08:32:27;4.20;;;2.65;;
53497;SDS011;39382;47.168;16.008;2023-05-10T08:34:53;3.53;;;2.42;;
53497;SDS011;39382;47.168;16.008;2023-05-10T08:37:19;3.33;;;2.75;;
53497;SDS011;39382;47.168;16.008;2023-05-10T08:39:45;4.15;;;2.72;;
53497;SDS011;39382;47.168;16.008;2023-05-10T08:42:12;3.20;;;2.83;;
53497;SDS011;39382;47.168;16.008;2023-05-10T08:44:44;5.47;;;2.53;;
53497;SDS011;39382;47.168;16.008;2023-05-10T08:47:13;5.18;;;3.03;;
53497;SDS011;39382;47.168;16.008;2023-05-10T08:49:41;4.88;;;2.38;;
53497;SDS011;39382;47.168;16.008;2023-05-10T08:52:08;2.65;;;2.17;;
53497;SDS011;39382;47.168;16.008;2023-05-10T08:54:37;4.55;;;2.75;;
53497;SDS011;39382;47.168;16.008;2023-05-10T08:57:03;4.72;;;3.08;;
53497;SDS011;39382;47.168;16.008;2023-05-10T08:59:29;3.70;;;2.45;;
53497;SDS011;39382;47.168;16.008;2023-05-10T09:01:58;6.20;;;3.08;;
53497;SDS011;39382;47.168;16.008;2023-05-10T09:04:24;2.00;;;1.83;;
53497;SDS011;39382;47.168;16.008;2023-05-10T09:06:50;3.08;;;2.58;;
53497;SDS011;39382;47.168;16.008;2023-05-10T09:09:17;1.95;;;1.85;;
53497;SDS011;39382;47.168;16.008;2023-05-10T09:11:43;4.32;;;2.30;;
53497;SDS011;39382;47.168;16.008;2023-05-10T09:14:09;4.25;;;2.92;;
53497;SDS011;39382;47.168;16.008;2023-05-10T09:16:37;2.40;;;1.95;;
53497;SDS011;39382;47.168;16.008;2023-05-10T09:19:03;5.28;;;2.17;;
53497;SDS011;39382;47.168;16.008;2023-05-10T09:21:28;2.25;;;1.92;;
53497;SDS011;39382;47.168;16.008;2023-05-10T09:23:56;5.85;;;1.88;;
53497;SDS011;39382;47.168;16.008;2023-05-10T09:26:22;5.43;;;1.88;;
53497;SDS011;39382;47.168;16.008;2023-05-10T09:28:52;3.05;;;2.03;;
53497;SDS011;39382;47.168;16.008;2023-05-10T09:34:29;3.60;;;2.60;;
53497;SDS011;39382;47.168;16.008;2023-05-10T09:36:56;2.40;;;2.20;;
53497;SDS011;39382;47.168;16.008;2023-05-10T09:39:35;2.72;;;2.00;;
53497;SDS011;39382;47.168;16.008;2023-05-10T09:42:06;4.50;;;1.75;;
53497;SDS011;39382;47.168;16.008;2023-05-10T09:44:35;2.97;;;2.13;;
53497;SDS011;39382;47.168;16.008;2023-05-10T09:47:01;5.68;;;1.80;;
53497;SDS011;39382;47.168;16.008;2023-05-10T09:49:27;2.15;;;1.33;;
53497;SDS011;39382;47.168;16.008;2023-05-10T09:52:03;4.72;;;2.28;;
53497;SDS011;39382;47.168;16.008;2023-05-10T09:54:30;2.30;;;2.10;;
53497;SDS011;39382;47.168;16.008;2023-05-10T09:56:58;3.17;;;1.38;;
53497;SDS011;39382;47.168;16.008;2023-05-10T09:59:27;2.20;;;1.75;;
53497;SDS011;39382;47.168;16.008;2023-05-10T10:01:57;2.60;;;1.67;;
53497;SDS011;39382;47.168;16.008;2023-05-10T10:04:24;2.22;;;2.03;;
53497;SDS011;39382;47.168;16.008;2023-05-10T10:07:00;6.20;;;2.05;;
53497;SDS011;39382;47.168;16.008;2023-05-10T10:09:28;6.85;;;2.08;;
53497;SDS011;39382;47.168;16.008;2023-05-10T10:11:54;1.67;;;1.50;;
53497;SDS011;39382;47.168;16.008;2023-05-10T10:14:21;3.95;;;1.77;;
53497;SDS011;39382;47.168;16.008;2023-05-10T10:16:49;1.65;;;1.55;;
53497;SDS011;39382;47.168;16.008;2023-05-10T10:19:16;3.92;;;1.65;;
53497;SDS011;39382;47.168;16.008;2023-05-10T10:21:46;2.05;;;1.30;;
53497;SDS011;39382;47.168;16.008;2023-05-10T10:24:12;2.28;;;2.08;;
53497;SDS011;39382;47.168;16.008;2023-05-10T10:26:38;2.28;;;1.60;;
53497;SDS011;39382;47.168;16.008;2023-05-10T10:34:16;2.47;;;1.55;;
53497;SDS011;39382;47.168;16.008;2023-05-10T10:36:51;1.92;;;1.55;;
53497;SDS011;39382;47.168;16.008;2023-05-10T10:39:17;5.10;;;1.40;;
53497;SDS011;39382;47.168;16.008;2023-05-10T10:41:55;1.42;;;1.33;;
53497;SDS011;39382;47.168;16.008;2023-05-10T10:52:14;3.10;;;1.40;;
53497;SDS011;39382;47.168;16.008;2023-05-10T10:55:07;1.80;;;1.70;;
53497;SDS011;39382;47.168;16.008;2023-05-10T10:57:52;4.55;;;1.17;;
53497;SDS011;39382;47.168;16.008;2023-05-10T11:00:30;3.47;;;1.27;;
53497;SDS011;39382;47.168;16.008;2023-05-10T11:03:03;1.30;;;1.20;;
53497;SDS011;39382;47.168;16.008;2023-05-10T11:05:35;2.42;;;1.25;;
53497;SDS011;39382;47.168;16.008;2023-05-10T11:08:14;0.93;;;0.93;;
53497;SDS011;39382;47.168;16.008;2023-05-10T11:16:10;2.35;;;0.90;;
53497;SDS011;39382;47.168;16.008;2023-05-10T11:18:39;2.83;;;1.45;;
53497;SDS011;39382;47.168;16.008;2023-05-10T11:21:07;2.75;;;1.30;;
53497;SDS011;39382;47.168;16.008;2023-05-10T11:26:08;1.05;;;0.95;;
53497;SDS011;39382;47.168;16.008;2023-05-10T11:28:36;1.48;;;1.02;;
53497;SDS011;39382;47.168;16.008;2023-05-10T11:31:06;1.85;;;1.35;;
53497;SDS011;39382;47.168;16.008;2023-05-10T11:33:42;1.42;;;1.33;;
53497;SDS011;39382;47.168;16.008;2023-05-10T11:36:16;1.20;;;1.10;;
53497;SDS011;39382;47.168;16.008;2023-05-10T11:38:46;1.00;;;1.00;;
53497;SDS011;39382;47.168;16.008;2023-05-10T11:41:12;1.25;;;1.00;;
53497;SDS011;39382;47.168;16.008;2023-05-10T11:43:39;1.88;;;1.30;;
53497;SDS011;39382;47.168;16.008;2023-05-10T11:46:10;2.50;;;0.95;;
53497;SDS011;39382;47.168;16.008;2023-05-10T11:48:38;1.50;;;0.75;;
53497;SDS011;39382;47.168;16.008;2023-05-10T11:51:04;1.58;;;1.20;;
53497;SDS011;39382;47.168;16.008;2023-05-10T11:53:31;1.10;;;0.80;;
53497;SDS011;39382;47.168;16.008;2023-05-10T11:56:04;1.15;;;1.00;;
53497;SDS011;39382;47.168;16.008;2023-05-10T11:58:31;1.00;;;0.90;;
53497;SDS011;39382;47.168;16.008;2023-05-10T12:00:58;1.63;;;1.20;;
53497;SDS011;39382;47.168;16.008;2023-05-10T12:03:25;0.98;;;0.93;;
53497;SDS011;39382;47.168;16.008;2023-05-10T12:05:51;4.05;;;0.70;;
53497;SDS011;39382;47.168;16.008;2023-05-10T12:08:20;0.85;;;0.80;;
53497;SDS011;39382;47.168;16.008;2023-05-10T12:10:48;1.85;;;1.08;;
53497;SDS011;39382;47.168;16.008;2023-05-10T12:13:14;1.98;;;0.80;;
53497;SDS011;39382;47.168;16.008;2023-05-10T12:15:40;0.60;;;0.55;;
53497;SDS011;39382;47.168;16.008;2023-05-10T12:18:10;0.98;;;0.98;;
53497;SDS011;39382;47.168;16.008;2023-05-10T12:20:37;1.52;;;0.90;;
53497;SDS011;39382;47.168;16.008;2023-05-10T12:23:04;0.93;;;0.88;;
53497;SDS011;39382;47.168;16.008;2023-05-10T12:25:34;1.00;;;0.90;;
53497;SDS011;39382;47.168;16.008;2023-05-10T12:28:03;1.05;;;0.90;;
53497;SDS011;39382;47.168;16.008;2023-05-10T12:30:30;0.80;;;0.80;;
53497;SDS011;39382;47.168;16.008;2023-05-10T12:33:13;0.70;;;0.70;;
53497;SDS011;39382;47.168;16.008;2023-05-10T12:40:58;0.95;;;0.80;;
53497;SDS011;39382;47.168;16.008;2023-05-10T12:43:25;0.70;;;0.70;;
53497;SDS011;39382;47.168;16.008;2023-05-10T12:45:51;0.50;;;0.50;;
53497;SDS011;39382;47.168;16.008;2023-05-10T12:48:16;0.50;;;0.50;;
53497;SDS011;39382;47.168;16.008;2023-05-10T12:50:42;0.75;;;0.75;;
53497;SDS011;39382;47.168;16.008;2023-05-10T12:53:08;0.63;;;0.60;;
53497;SDS011;39382;47.168;16.008;2023-05-10T12:55:33;0.70;;;0.68;;
53497;SDS011;39382;47.168;16.008;2023-05-10T12:57:59;2.33;;;0.80;;
53497;SDS011;39382;47.168;16.008;2023-05-10T13:00:25;0.70;;;0.68;;
53497;SDS011;39382;47.168;16.008;2023-05-10T13:02:51;1.10;;;1.02;;
53497;SDS011;39382;47.168;16.008;2023-05-10T13:05:17;1.10;;;1.05;;
53497;SDS011;39382;47.168;16.008;2023-05-10T13:07:42;0.80;;;0.80;;
53497;SDS011;39382;47.168;16.008;2023-05-10T13:10:09;2.55;;;1.02;;
53497;SDS011;39382;47.168;16.008;2023-05-10T13:12:35;1.17;;;0.90;;
53497;SDS011;39382;47.168;16.008;2023-05-10T13:15:01;7.32;;;1.17;;
53497;SDS011;39382;47.168;16.008;2023-05-10T13:17:27;1.73;;;1.00;;
53497;SDS011;39382;47.168;16.008;2023-05-10T13:19:54;1.15;;;1.15;;
53497;SDS011;39382;47.168;16.008;2023-05-10T13:22:19;0.80;;;0.60;;
53497;SDS011;39382;47.168;16.008;2023-05-10T13:24:45;1.65;;;0.70;;
53497;SDS011;39382;47.168;16.008;2023-05-10T13:27:11;0.63;;;0.63;;
53497;SDS011;39382;47.168;16.008;2023-05-10T13:29:36;0.60;;;0.60;;
53497;SDS011;39382;47.168;16.008;2023-05-10T13:32:02;0.70;;;0.70;;
53497;SDS011;39382;47.168;16.008;2023-05-10T13:34:28;2.13;;;0.63;;
53497;SDS011;39382;47.168;16.008;2023-05-10T13:36:54;0.73;;;0.73;;
53497;SDS011;39382;47.168;16.008;2023-05-10T13:39:21;1.85;;;1.13;;
53497;SDS011;39382;47.168;16.008;2023-05-10T13:41:47;0.65;;;0.60;;
53497;SDS011;39382;47.168;16.008;2023-05-10T13:44:13;3.15;;;0.55;;
53497;SDS011;39382;47.168;16.008;2023-05-10T13:46:39;2.83;;;1.13;;
53497;SDS011;39382;47.168;16.008;2023-05-10T13:49:06;1.80;;;1.42;;
53497;SDS011;39382;47.168;16.008;2023-05-10T13:51:33;3.28;;;2.30;;
53497;SDS011;39382;47.168;16.008;2023-05-10T13:53:58;2.70;;;1.60;;
53497;SDS011;39382;47.168;16.008;2023-05-10T13:56:24;1.58;;;1.27;;
53497;SDS011;39382;47.168;16.008;2023-05-10T13:58:50;0.82;;;0.82;;
53497;SDS011;39382;47.168;16.008;2023-05-10T14:01:16;5.70;;;0.93;;
53497;SDS011;39382;47.168;16.008;2023-05-10T14:03:41;1.13;;;0.80;;
53497;SDS011;39382;47.168;16.008;2023-05-10T14:06:07;0.93;;;0.70;;
53497;SDS011;39382;47.168;16.008;2023-05-10T14:08:33;0.63;;;0.63;;
53497;SDS011;39382;47.168;16.008;2023-05-10T14:11:00;1.00;;;0.55;;
53497;SDS011;39382;47.168;16.008;2023-05-10T14:13:26;1.77;;;0.77;;
53497;SDS011;39382;47.168;16.008;2023-05-10T14:15:52;1.15;;;1.10;;
53497;SDS011;39382;47.168;16.008;2023-05-10T14:18:18;1.63;;;1.05;;
53497;SDS011;39382;47.168;16.008;2023-05-10T14:20:44;2.22;;;1.00;;
53497;SDS011;39382;47.168;16.008;2023-05-10T14:23:10;1.90;;;1.27;;
53497;SDS011;39382;47.168;16.008;2023-05-10T14:25:36;1.25;;;0.80;;
53497;SDS011;39382;47.168;16.008;2023-05-10T14:28:03;0.98;;;0.90;;
53497;SDS011;39382;47.168;16.008;2023-05-10T14:30:28;0.82;;;0.82;;
53497;SDS011;39382;47.168;16.008;2023-05-10T14:32:55;1.50;;;0.90;;
53497;SDS011;39382;47.168;16.008;2023-05-10T14:35:23;4.10;;;1.17;;
53497;SDS011;39382;47.168;16.008;2023-05-10T14:37:48;1.30;;;0.70;;
53497;SDS011;39382;47.168;16.008;2023-05-10T14:40:14;1.55;;;1.17;;
53497;SDS011;39382;47.168;16.008;2023-05-10T14:42:41;1.60;;;1.45;;
53497;SDS011;39382;47.168;16.008;2023-05-10T14:45:08;1.00;;;0.90;;
53497;SDS011;39382;47.168;16.008;2023-05-10T14:47:34;2.95;;;1.08;;
53497;SDS011;39382;47.168;16.008;2023-05-10T14:50:00;1.08;;;1.00;;
53497;SDS011;39382;47.168;16.008;2023-05-10T14:52:25;0.90;;;0.90;;
53497;SDS011;39382;47.168;16.008;2023-05-10T14:54:51;1.67;;;1.10;;
53497;SDS011;39382;47.168;16.008;2023-05-10T14:57:17;1.02;;;1.00;;
53497;SDS011;39382;47.168;16.008;2023-05-10T14:59:43;2.53;;;0.77;;
53497;SDS011;39382;47.168;16.008;2023-05-10T15:02:08;1.33;;;1.23;;
53497;SDS011;39382;47.168;16.008;2023-05-10T15:04:35;1.73;;;1.20;;
53497;SDS011;39382;47.168;16.008;2023-05-10T15:07:01;1.45;;;1.25;;
53497;SDS011;39382;47.168;16.008;2023-05-10T15:09:26;1.55;;;1.13;;
53497;SDS011;39382;47.168;16.008;2023-05-10T15:11:52;2.90;;;1.55;;
53497;SDS011;39382;47.168;16.008;2023-05-10T15:14:18;1.20;;;0.98;;
53497;SDS011;39382;47.168;16.008;2023-05-10T15:16:44;6.15;;;2.45;;
53497;SDS011;39382;47.168;16.008;2023-05-10T15:19:09;1.50;;;1.40;;
53497;SDS011;39382;47.168;16.008;2023-05-10T15:21:35;1.50;;;1.40;;
53497;SDS011;39382;47.168;16.008;2023-05-10T15:24:06;1.52;;;1.42;;
53497;SDS011;39382;47.168;16.008;2023-05-10T15:26:33;1.48;;;1.23;;
53497;SDS011;39382;47.168;16.008;2023-05-10T15:28:58;1.45;;;1.30;;
53497;SDS011;39382;47.168;16.008;2023-05-10T15:31:24;1.65;;;1.55;;
53497;SDS011;39382;47.168;16.008;2023-05-10T15:33:50;1.70;;;1.60;;
53497;SDS011;39382;47.168;16.008;2023-05-10T15:36:16;0.80;;;0.80;;